Friday, October 19, 2018, 11:40 AM EDT
Back to Local

KMMU, Morristown Municipal

Location: Morristown, NJ, United States Lat: 40.8
Local Time: 11:40 AM EDT (15:40 GMT) Lon: -74.417
Time Zone: US/Eastern Elev: 187 ft

Show me the last for .
Show Decoded

2018-10-19 10:45 METAR KMMU 191445Z 26008G15KT 10SM SCT250 11/03 A3027 =
2018-10-19 09:45 METAR KMMU 191345Z 22007KT 10SM SCT250 08/03 A3029 =
2018-10-19 08:45 METAR KMMU 191245Z 00000KT 10SM FEW250 02/02 A3032 =
2018-10-19 07:50 METAR KMMU 191150Z 00000KT 10SM SKC 00/00 A3032 =
2018-10-19 06:45 METAR KMMU 191045Z 00000KT 10SM SKC M02/M02 A3032 =
2018-10-19 06:35 METAR KMMU 191035Z AUTO 00000KT 10SM CLR M01/M01 A3031 RMK AO2 =
2018-10-19 06:15 METAR KMMU 191015Z AUTO 00000KT 10SM CLR M01/M01 A3031 RMK AO2 =
2018-10-19 05:55 METAR KMMU 190955Z AUTO 00000KT 10SM CLR M01/M01 A3031 RMK AO2 =
2018-10-19 05:35 METAR KMMU 190935Z AUTO 00000KT 10SM CLR M01/M01 A3031 RMK AO2 =
2018-10-19 05:15 METAR KMMU 190915Z AUTO 00000KT 10SM CLR M01/M01 A3031 RMK AO2 =
2018-10-19 04:55 METAR KMMU 190855Z AUTO 00000KT 10SM CLR M01/M01 A3031 RMK AO2 =
2018-10-19 04:35 METAR KMMU 190835Z AUTO 00000KT 10SM CLR M01/M01 A3031 RMK AO2 =
2018-10-19 04:15 METAR KMMU 190815Z AUTO 00000KT 10SM CLR M01/M01 A3031 RMK AO2 =
2018-10-19 03:55 METAR KMMU 190755Z AUTO 00000KT 10SM CLR M01/M01 A3031 RMK AO2 =
2018-10-19 03:35 METAR KMMU 190735Z AUTO 00000KT 10SM CLR M00/M00 A3031 RMK AO2 =
2018-10-19 03:15 METAR KMMU 190715Z AUTO 00000KT 10SM CLR M01/M01 A3032 RMK AO2 =
2018-10-19 02:55 METAR KMMU 190655Z AUTO 00000KT 10SM CLR M00/M00 A3032 RMK AO2 =
2018-10-19 02:35 METAR KMMU 190635Z AUTO 00000KT 10SM CLR 00/00 A3033 RMK AO2 =
2018-10-19 02:15 METAR KMMU 190615Z AUTO 00000KT 10SM CLR M00/M00 A3033 RMK AO2 =
2018-10-19 01:55 METAR KMMU 190555Z AUTO 00000KT 10SM CLR 00/00 A3033 RMK AO2 =
2018-10-19 01:35 METAR KMMU 190535Z AUTO 00000KT 10SM CLR 00/00 A3033 RMK AO2 =
2018-10-19 01:15 METAR KMMU 190515Z AUTO 00000KT 10SM CLR 00/00 A3034 RMK AO2 =
2018-10-19 00:55 METAR KMMU 190455Z AUTO 00000KT 10SM CLR 00/00 A3034 RMK AO2 =
2018-10-19 00:35 METAR KMMU 190435Z AUTO 00000KT 10SM CLR 00/00 A3034 RMK AO2 =
2018-10-19 00:15 METAR KMMU 190415Z AUTO 00000KT 10SM CLR 00/00 A3034 RMK AO2 =
2018-10-18 23:55 METAR KMMU 190355Z AUTO 00000KT 10SM CLR 00/00 A3034 RMK AO2 =
2018-10-18 23:35 METAR KMMU 190335Z AUTO 00000KT 10SM CLR 00/00 A3035 RMK AO2 =
2018-10-18 23:15 METAR KMMU 190315Z AUTO 00000KT 10SM CLR 01/00 A3035 RMK AO2 =
2018-10-18 22:55 METAR KMMU 190255Z AUTO 00000KT 10SM CLR 01/00 A3035 RMK AO2 =
2018-10-18 22:35 METAR KMMU 190235Z AUTO 00000KT 10SM CLR 01/00 A3035 RMK AO2 =
2018-10-18 22:15 METAR KMMU 190215Z AUTO 00000KT 10SM CLR 01/00 A3034 RMK AO2 =
2018-10-18 21:45 METAR KMMU 190145Z 00000KT 10SM SKC 02/01 A3037 =
2018-10-18 20:45 METAR KMMU 190045Z 00000KT 10SM SKC 02/01 A3036 =
2018-10-18 19:45 METAR KMMU 182345Z 00000KT 10SM SKC 04/01 A3036 =
2018-10-18 18:45 METAR KMMU 182245Z 32004KT 10SM SKC 07/M02 A3034 =
2018-10-18 17:45 METAR KMMU 182145Z 32008G13KT 10SM SKC 09/M04 A3033 =
2018-10-18 16:45 METAR KMMU 182045Z 3009G16KT 10SM SKC 10/M04 A3032 =
2018-10-18 15:50 METAR KMMU 181950Z 33010G20KT 10SM SKC 10/M05 A3032 =
2018-10-18 14:45 METAR KMMU 181845Z 35009G18KT 10SM SKC 10/M06 A3033 =
2018-10-18 13:45 METAR KMMU 181745Z 30014G21KT 10SM SKC 10/M04 A3034 =
2018-10-18 12:45 METAR KMMU 181645Z 34010G19KT 10SM FEW060 09/M06 A3036 =
2018-10-18 11:45 METAR KMMU 181545Z 31008G16KT 10SM SCT060 08/M05 A3037 =

Support USWX by starting your Amazon purchase here.